createdAt,value
2023-05-21T00:02:22.120Z,10.78
2023-05-21T00:05:07.762Z,10.77
2023-05-21T00:07:53.022Z,10.64
2023-05-21T00:10:38.566Z,10.65
2023-05-21T00:13:23.935Z,10.79
2023-05-21T00:16:09.383Z,10.73
2023-05-21T00:18:54.869Z,10.99
2023-05-21T00:21:40.278Z,10.84
2023-05-21T00:24:25.450Z,10.36
2023-05-21T00:27:10.821Z,10.80
2023-05-21T00:29:56.133Z,10.50
2023-05-21T00:32:44.608Z,10.54
2023-05-21T00:35:30.086Z,10.60
2023-05-21T00:38:15.383Z,10.20
2023-05-21T00:41:00.784Z,10.58
2023-05-21T00:43:46.205Z,10.02
2023-05-21T00:46:31.575Z,10.19
2023-05-21T00:49:17.010Z,10.29
2023-05-21T00:52:02.278Z,10.39
2023-05-21T00:54:47.768Z,10.37
2023-05-21T00:57:32.866Z,10.32
2023-05-21T01:00:18.194Z,10.21
2023-05-21T01:03:03.840Z,9.89
2023-05-21T01:05:49.105Z,10.03
2023-05-21T01:08:34.574Z,10.29
2023-05-21T01:11:19.862Z,9.81
2023-05-21T01:14:05.479Z,10.11
2023-05-21T01:16:50.976Z,10.08
2023-05-21T01:19:36.160Z,10.01
2023-05-21T01:22:21.308Z,9.66
2023-05-21T01:25:06.654Z,10.05
2023-05-21T01:27:52.092Z,10.08
2023-05-21T01:30:37.460Z,9.68
2023-05-21T01:33:22.787Z,9.94
2023-05-21T01:36:08.277Z,9.91
2023-05-21T01:38:53.564Z,10.04
2023-05-21T01:41:39.080Z,9.83
2023-05-21T01:44:24.274Z,9.49
2023-05-21T01:47:09.399Z,9.48
2023-05-21T01:49:54.744Z,9.14
2023-05-21T01:52:39.972Z,9.61
2023-05-21T01:55:26.117Z,9.44
2023-05-21T01:58:11.393Z,9.52
2023-05-21T02:00:56.865Z,9.19
2023-05-21T02:03:42.244Z,9.56
2023-05-21T02:06:27.537Z,9.67
2023-05-21T02:09:12.979Z,9.79
2023-05-21T02:11:58.455Z,9.45
2023-05-21T02:14:43.830Z,9.51
2023-05-21T02:17:29.285Z,9.41
2023-05-21T02:20:14.676Z,9.40
2023-05-21T02:23:00.184Z,9.52
2023-05-21T02:25:45.620Z,9.13
2023-05-21T02:28:31.152Z,9.17
2023-05-21T02:31:16.489Z,9.09
2023-05-21T02:34:02.007Z,9.69
2023-05-21T02:36:47.436Z,9.16
2023-05-21T02:39:32.802Z,9.39
2023-05-21T02:42:18.276Z,9.07
2023-05-21T02:45:03.616Z,9.04
2023-05-21T02:47:48.847Z,8.99
2023-05-21T02:50:34.303Z,8.71
2023-05-21T02:53:19.647Z,8.79
2023-05-21T02:56:05.211Z,9.13
2023-05-21T02:58:50.529Z,8.97
2023-05-21T03:01:35.865Z,9.17
2023-05-21T03:04:21.215Z,9.08
2023-05-21T03:07:06.502Z,9.15
2023-05-21T03:09:51.896Z,9.24
2023-05-21T03:12:37.220Z,8.74
2023-05-21T03:15:22.782Z,8.90
2023-05-21T03:18:08.181Z,8.82
2023-05-21T03:20:53.287Z,9.00
2023-05-21T03:23:38.708Z,8.61
2023-05-21T03:26:23.958Z,8.50
2023-05-21T03:29:09.428Z,8.98
2023-05-21T03:31:54.975Z,8.57
2023-05-21T03:34:40.257Z,8.76
2023-05-21T03:37:25.754Z,8.60
2023-05-21T03:40:11.005Z,8.76
2023-05-21T03:42:56.397Z,8.74
2023-05-21T03:45:44.210Z,8.46
2023-05-21T03:48:29.654Z,8.64
2023-05-21T03:51:15.023Z,8.80
2023-05-21T03:54:00.369Z,8.68
2023-05-21T03:56:45.526Z,8.44
2023-05-21T03:59:31.076Z,8.57
2023-05-21T04:02:16.736Z,8.69
2023-05-21T04:05:02.024Z,8.63
2023-05-21T04:07:47.302Z,8.39
2023-05-21T04:10:32.434Z,8.48
2023-05-21T04:13:17.909Z,8.45
2023-05-21T04:16:03.395Z,8.62
2023-05-21T04:18:48.846Z,8.01
2023-05-21T04:21:34.207Z,8.38
2023-05-21T04:24:19.570Z,8.40
2023-05-21T04:27:04.804Z,8.34
2023-05-21T04:29:50.759Z,8.36
2023-05-21T04:32:35.955Z,8.45
2023-05-21T04:35:21.113Z,8.25
2023-05-21T04:38:06.459Z,8.02
2023-05-21T04:40:51.818Z,8.18
2023-05-21T04:43:37.204Z,8.00
2023-05-21T04:46:22.497Z,8.04
2023-05-21T04:49:07.945Z,8.07
2023-05-21T04:51:53.215Z,7.79
2023-05-21T04:54:38.418Z,8.16
2023-05-21T04:57:26.813Z,8.07
2023-05-21T05:00:11.961Z,8.08
2023-05-21T05:02:57.481Z,7.79
2023-05-21T05:05:42.808Z,7.91
2023-05-21T05:08:28.145Z,8.12
2023-05-21T05:11:13.541Z,7.64
2023-05-21T05:13:58.859Z,7.93
2023-05-21T05:16:44.260Z,7.92
2023-05-21T05:19:29.861Z,7.56
2023-05-21T05:22:15.043Z,7.80
2023-05-21T05:25:00.582Z,7.68
2023-05-21T05:27:45.955Z,7.77
2023-05-21T05:30:31.323Z,7.68
2023-05-21T05:33:16.508Z,7.75
2023-05-21T05:36:01.815Z,7.81
2023-05-21T05:38:47.240Z,7.95
2023-05-21T05:41:32.511Z,8.44
2023-05-21T05:44:17.973Z,8.12
2023-05-21T05:47:03.382Z,7.92
2023-05-21T05:49:48.404Z,7.86
2023-05-21T05:52:33.656Z,8.13
2023-05-21T05:55:19.112Z,7.95
2023-05-21T05:58:04.118Z,7.81
2023-05-21T06:00:49.372Z,7.70
2023-05-21T06:03:34.842Z,8.01
2023-05-21T06:06:20.076Z,7.96
2023-05-21T06:09:05.638Z,8.13
2023-05-21T06:11:50.923Z,7.98
2023-05-21T06:14:36.337Z,7.42
2023-05-21T06:17:21.788Z,7.77
2023-05-21T06:20:07.041Z,7.71
2023-05-21T06:22:52.336Z,7.60
2023-05-21T06:25:37.994Z,7.51
2023-05-21T06:28:23.687Z,7.84
2023-05-21T06:31:08.926Z,7.43
2023-05-21T06:33:54.113Z,7.62
2023-05-21T06:36:39.371Z,7.80
2023-05-21T06:39:24.748Z,8.06
2023-05-21T06:42:10.233Z,7.42
2023-05-21T06:44:55.291Z,7.24
2023-05-21T06:47:40.691Z,7.92
2023-05-21T06:50:26.109Z,7.37
2023-05-21T06:53:11.566Z,7.45
2023-05-21T06:55:57.069Z,7.45
2023-05-21T06:58:42.291Z,7.16
2023-05-21T07:01:27.801Z,7.43
2023-05-21T07:04:13.128Z,7.53
2023-05-21T07:06:58.385Z,7.45
2023-05-21T07:09:43.921Z,7.12
2023-05-21T07:12:29.227Z,7.39
2023-05-21T07:15:14.797Z,7.65
2023-05-21T07:18:00.159Z,7.70
2023-05-21T07:20:45.480Z,7.78
2023-05-21T07:23:30.895Z,7.09
2023-05-21T07:26:16.249Z,7.46
2023-05-21T07:29:01.792Z,7.24
2023-05-21T07:31:47.282Z,7.36
2023-05-21T07:34:32.679Z,7.74
2023-05-21T07:37:18.120Z,7.27
2023-05-21T07:40:03.417Z,6.99
2023-05-21T07:42:48.886Z,6.91
2023-05-21T07:45:34.459Z,7.22
2023-05-21T07:48:19.599Z,7.24
2023-05-21T07:51:04.974Z,7.55
2023-05-21T07:53:50.346Z,7.62
2023-05-21T07:56:35.748Z,7.95
2023-05-21T07:59:21.135Z,7.60
2023-05-21T08:02:06.622Z,7.77
2023-05-21T08:04:51.981Z,7.50
2023-05-21T08:07:37.109Z,7.69
2023-05-21T08:10:22.421Z,7.75
2023-05-21T08:13:07.679Z,7.58
2023-05-21T08:15:53.582Z,7.58
2023-05-21T08:18:38.601Z,7.40
2023-05-21T08:21:23.788Z,7.70
2023-05-21T08:24:09.119Z,7.54
2023-05-21T08:26:54.491Z,7.58
2023-05-21T08:29:39.822Z,7.65
2023-05-21T08:32:25.128Z,7.43
2023-05-21T08:35:10.585Z,7.16
2023-05-21T08:37:55.806Z,7.57
2023-05-21T08:40:41.158Z,7.43
2023-05-21T08:43:26.544Z,7.10
2023-05-21T08:46:11.812Z,7.12
2023-05-21T08:48:57.256Z,7.23
2023-05-21T08:51:42.638Z,7.14
2023-05-21T08:54:27.870Z,6.80
2023-05-21T08:57:13.330Z,6.92
2023-05-21T08:59:58.656Z,7.35
2023-05-21T09:02:44.257Z,7.30
2023-05-21T09:05:29.519Z,7.07
2023-05-21T09:08:14.910Z,7.24
2023-05-21T09:11:00.257Z,7.21
2023-05-21T09:13:45.246Z,7.33
2023-05-21T09:16:30.651Z,7.08
2023-05-21T09:19:15.891Z,7.00
2023-05-21T09:22:01.233Z,7.00
2023-05-21T09:24:46.206Z,6.88
2023-05-21T09:27:31.261Z,6.93
2023-05-21T09:30:16.645Z,6.81
2023-05-21T09:33:02.105Z,6.92
2023-05-21T09:35:47.422Z,6.90
2023-05-21T09:38:32.667Z,6.94
2023-05-21T09:41:21.576Z,6.89
2023-05-21T09:44:07.673Z,7.04
2023-05-21T09:46:53.140Z,6.99
2023-05-21T09:49:38.482Z,6.64
2023-05-21T09:52:23.673Z,6.62
2023-05-21T09:55:08.951Z,6.83
2023-05-21T09:57:54.268Z,7.03
2023-05-21T10:00:39.567Z,6.98
2023-05-21T10:03:24.947Z,7.07
2023-05-21T10:06:10.241Z,7.04
2023-05-21T10:08:55.634Z,6.70
2023-05-21T10:11:41.118Z,7.13
2023-05-21T10:14:26.557Z,7.10
2023-05-21T10:17:12.059Z,7.30
2023-05-21T10:19:57.315Z,7.07
2023-05-21T10:22:45.531Z,7.44
2023-05-21T10:25:30.941Z,7.40
2023-05-21T10:28:16.129Z,7.30
2023-05-21T10:31:01.756Z,7.64
2023-05-21T10:33:47.101Z,7.95
2023-05-21T10:36:32.574Z,7.65
2023-05-21T10:39:17.978Z,7.60
2023-05-21T10:42:03.301Z,7.44
2023-05-21T10:44:48.739Z,7.82
2023-05-21T10:47:34.182Z,8.42
2023-05-21T10:50:19.603Z,9.57
2023-05-21T10:53:05.056Z,10.53
2023-05-21T10:55:50.258Z,10.89
2023-05-21T10:58:35.735Z,11.02
2023-05-21T11:01:20.794Z,10.68
2023-05-21T11:04:06.061Z,10.45
2023-05-21T11:06:51.281Z,10.43
2023-05-21T11:09:36.631Z,9.88
2023-05-21T11:12:22.046Z,9.71
2023-05-21T11:15:07.391Z,9.85
2023-05-21T11:17:52.890Z,9.66
2023-05-21T11:20:38.294Z,9.28
2023-05-21T11:23:23.540Z,9.17
2023-05-21T11:26:08.784Z,9.40
2023-05-21T11:28:54.264Z,9.16
2023-05-21T11:31:39.835Z,9.04
2023-05-21T11:34:25.040Z,9.14
2023-05-21T11:37:10.474Z,9.06
2023-05-21T11:39:55.776Z,9.36
2023-05-21T11:42:41.029Z,8.95
2023-05-21T11:45:26.157Z,8.80
2023-05-21T11:48:11.736Z,8.63
2023-05-21T11:50:56.869Z,8.55
2023-05-21T11:53:43.515Z,8.85
2023-05-21T11:56:29.679Z,8.67
2023-05-21T11:59:17.129Z,8.60
2023-05-21T12:02:03.996Z,8.74
2023-05-21T12:04:49.389Z,8.66
2023-05-21T12:07:34.807Z,8.59
2023-05-21T12:10:20.146Z,8.23
2023-05-21T12:13:05.578Z,8.11
2023-05-21T12:15:50.893Z,8.11
2023-05-21T12:18:36.757Z,8.03
2023-05-21T12:21:22.225Z,7.89
2023-05-21T12:24:07.607Z,7.94
2023-05-21T12:26:52.935Z,7.95
2023-05-21T12:29:38.038Z,7.66
2023-05-21T12:32:23.429Z,7.61
2023-05-21T12:35:08.711Z,7.82
2023-05-21T12:37:53.992Z,7.57
2023-05-21T12:40:40.162Z,7.87
2023-05-21T12:43:25.674Z,8.03
2023-05-21T12:46:11.159Z,7.45
2023-05-21T12:48:56.367Z,7.79
2023-05-21T12:51:41.501Z,7.76
2023-05-21T12:54:26.815Z,7.41
2023-05-21T12:57:12.075Z,7.40
2023-05-21T12:59:57.438Z,7.65
2023-05-21T13:02:42.732Z,7.43
2023-05-21T13:05:28.990Z,7.48
2023-05-21T13:08:14.426Z,7.71
2023-05-21T13:10:59.679Z,7.50
2023-05-21T13:13:45.279Z,7.56
2023-05-21T13:16:30.748Z,7.43
2023-05-21T13:19:16.110Z,7.22
2023-05-21T13:22:01.241Z,7.28
2023-05-21T13:24:46.555Z,7.33
2023-05-21T13:27:32.078Z,7.08
2023-05-21T13:30:17.398Z,7.43
2023-05-21T13:33:03.000Z,7.22
2023-05-21T13:35:48.243Z,6.78
2023-05-21T13:38:33.695Z,6.90
2023-05-21T13:41:19.076Z,7.08
2023-05-21T13:44:04.340Z,7.08
2023-05-21T13:46:49.811Z,6.70
2023-05-21T13:49:35.039Z,7.30
2023-05-21T13:52:20.388Z,6.95
2023-05-21T13:55:06.012Z,6.84
2023-05-21T13:57:51.330Z,6.81
2023-05-21T14:00:36.799Z,6.72
2023-05-21T14:03:21.928Z,6.80
2023-05-21T14:06:07.192Z,7.02
2023-05-21T14:08:52.454Z,6.67
2023-05-21T14:11:37.878Z,6.88
2023-05-21T14:14:23.266Z,6.76
2023-05-21T14:17:08.552Z,6.85
2023-05-21T14:19:54.031Z,6.83
2023-05-21T14:22:39.615Z,6.79
2023-05-21T14:25:24.904Z,6.65
2023-05-21T14:28:10.139Z,6.62
2023-05-21T14:30:56.526Z,6.43
2023-05-21T14:33:41.979Z,6.67
2023-05-21T14:36:27.168Z,6.69
2023-05-21T14:39:12.666Z,6.62
2023-05-21T14:41:58.053Z,6.55
2023-05-21T14:44:43.786Z,6.58
2023-05-21T14:47:29.068Z,6.56
2023-05-21T14:50:14.243Z,6.71
2023-05-21T14:52:59.509Z,6.60
2023-05-21T14:55:44.794Z,6.48
2023-05-21T14:58:29.921Z,6.48
2023-05-21T15:01:15.313Z,6.70
2023-05-21T15:04:00.736Z,6.49
2023-05-21T15:06:46.376Z,6.55
2023-05-21T15:09:32.858Z,6.38
2023-05-21T15:12:18.310Z,6.33
2023-05-21T15:15:03.712Z,6.69
2023-05-21T15:17:48.853Z,6.37
2023-05-21T15:20:34.525Z,6.25
2023-05-21T15:23:19.828Z,6.31
2023-05-21T15:26:05.319Z,6.24
2023-05-21T15:28:50.663Z,6.15
2023-05-21T15:31:35.938Z,6.38
2023-05-21T15:34:21.171Z,6.59
2023-05-21T15:37:06.619Z,6.80
2023-05-21T15:39:52.033Z,6.65
2023-05-21T15:42:37.289Z,13.99
2023-05-21T15:45:22.820Z,19.14
2023-05-21T15:48:08.113Z,19.29
2023-05-21T15:50:53.504Z,20.14
2023-05-21T15:53:39.014Z,18.10
2023-05-21T15:56:24.318Z,17.48
2023-05-21T15:59:10.829Z,18.11
2023-05-21T16:01:56.270Z,16.95
2023-05-21T16:04:41.542Z,16.65
2023-05-21T16:07:26.925Z,16.47
2023-05-21T16:10:12.267Z,15.60
2023-05-21T16:12:57.643Z,15.15
2023-05-21T16:15:42.935Z,15.30
2023-05-21T16:18:28.350Z,14.78
2023-05-21T16:21:13.786Z,14.37
2023-05-21T16:23:58.984Z,14.16
2023-05-21T16:26:44.454Z,14.13
2023-05-21T16:29:29.915Z,14.11
2023-05-21T16:32:15.242Z,14.08
2023-05-21T16:35:00.489Z,13.04
2023-05-21T16:37:45.753Z,12.59
2023-05-21T16:40:31.072Z,12.76
2023-05-21T16:43:16.387Z,12.61
2023-05-21T16:46:01.826Z,12.81
2023-05-21T16:48:47.091Z,12.65
2023-05-21T16:51:32.561Z,12.66
2023-05-21T16:54:17.991Z,12.19
2023-05-21T16:57:03.184Z,12.13
2023-05-21T16:59:48.460Z,12.17
2023-05-21T17:02:33.861Z,11.86
2023-05-21T17:05:19.297Z,12.08
2023-05-21T17:08:04.858Z,12.05
2023-05-21T17:10:50.137Z,12.26
2023-05-21T17:13:35.497Z,12.32
2023-05-21T17:16:20.779Z,11.58
2023-05-21T17:19:06.279Z,11.58
2023-05-21T17:21:51.697Z,11.71
2023-05-21T17:24:37.146Z,11.69
2023-05-21T17:27:22.397Z,11.77
2023-05-21T17:30:07.497Z,11.56
2023-05-21T17:32:52.905Z,11.42
2023-05-21T17:35:38.416Z,11.51
2023-05-21T17:38:23.972Z,11.47
2023-05-21T17:41:09.342Z,11.51
2023-05-21T17:43:57.776Z,11.14
2023-05-21T17:46:43.202Z,11.23
2023-05-21T17:49:28.714Z,11.01
2023-05-21T17:52:13.953Z,10.89
2023-05-21T17:54:59.409Z,10.90
2023-05-21T17:57:44.906Z,11.04
2023-05-21T18:00:30.356Z,11.22
2023-05-21T18:03:15.654Z,10.82
2023-05-21T18:06:01.062Z,10.53
2023-05-21T18:08:46.327Z,10.82
2023-05-21T18:11:31.720Z,10.91
2023-05-21T18:14:17.142Z,10.55
2023-05-21T18:17:02.673Z,10.54
2023-05-21T18:19:48.013Z,10.50
2023-05-21T18:22:33.357Z,10.48
2023-05-21T18:25:18.702Z,10.02
2023-05-21T18:28:04.086Z,10.22
2023-05-21T18:30:49.344Z,10.46
2023-05-21T18:33:34.791Z,10.29
2023-05-21T18:36:20.257Z,10.21
2023-05-21T18:39:05.692Z,9.98
2023-05-21T18:41:53.698Z,9.90
2023-05-21T18:44:47.040Z,9.68
2023-05-21T18:47:32.504Z,9.78
2023-05-21T18:50:17.651Z,9.87
2023-05-21T18:53:03.229Z,9.98
2023-05-21T18:55:48.570Z,9.78
2023-05-21T18:58:33.917Z,9.50
2023-05-21T19:01:19.174Z,9.64
2023-05-21T19:04:04.463Z,9.64
2023-05-21T19:06:49.688Z,9.45
2023-05-21T19:09:35.121Z,9.27
2023-05-21T19:12:20.471Z,9.49
2023-05-21T19:15:05.767Z,9.12
2023-05-21T19:17:51.144Z,9.42
2023-05-21T19:20:36.670Z,9.21
2023-05-21T19:23:22.177Z,9.60
2023-05-21T19:26:07.686Z,9.24
2023-05-21T19:28:53.454Z,8.96
2023-05-21T19:31:39.383Z,8.87
2023-05-21T19:34:24.980Z,8.93
2023-05-21T19:37:10.221Z,8.81
2023-05-21T19:39:55.674Z,9.16
2023-05-21T19:42:40.864Z,8.62
2023-05-21T19:45:26.448Z,8.79
2023-05-21T19:48:11.717Z,8.86
2023-05-21T19:50:57.115Z,8.92
2023-05-21T19:53:42.414Z,8.49
2023-05-21T19:56:27.766Z,9.07
2023-05-21T19:59:15.985Z,8.91
2023-05-21T20:02:01.359Z,8.51
2023-05-21T20:04:46.654Z,8.51
2023-05-21T20:07:32.243Z,8.81
2023-05-21T20:10:17.596Z,8.13
2023-05-21T20:13:02.713Z,8.79
2023-05-21T20:15:51.159Z,8.57
2023-05-21T20:18:36.320Z,8.27
2023-05-21T20:21:21.778Z,8.30
2023-05-21T20:24:07.100Z,8.59
2023-05-21T20:26:52.467Z,8.53
2023-05-21T20:29:37.926Z,8.34
2023-05-21T20:32:23.245Z,8.47
2023-05-21T20:35:08.585Z,8.34
2023-05-21T20:37:53.705Z,8.66
2023-05-21T20:40:39.145Z,8.64
2023-05-21T20:43:24.430Z,8.35
2023-05-21T20:46:09.608Z,8.19
2023-05-21T20:48:54.980Z,8.21
2023-05-21T20:51:40.313Z,8.25
2023-05-21T20:54:25.571Z,8.14
2023-05-21T20:57:10.872Z,8.35
2023-05-21T20:59:56.314Z,8.34
2023-05-21T21:02:41.725Z,8.10
2023-05-21T21:05:26.876Z,8.37
2023-05-21T21:08:12.348Z,8.24
2023-05-21T21:10:57.572Z,8.16
2023-05-21T21:13:42.998Z,8.18
2023-05-21T21:16:28.408Z,8.20
2023-05-21T21:19:13.735Z,8.00
2023-05-21T21:21:59.022Z,8.01
2023-05-21T21:24:44.229Z,8.22
2023-05-21T21:27:29.675Z,7.82
2023-05-21T21:30:15.114Z,7.85
2023-05-21T21:33:00.644Z,7.57
2023-05-21T21:35:45.984Z,7.91
2023-05-21T21:38:31.348Z,7.69
2023-05-21T21:41:16.749Z,7.70
2023-05-21T21:44:02.105Z,7.86
2023-05-21T21:46:47.495Z,8.19
2023-05-21T21:49:32.811Z,8.05
2023-05-21T21:52:18.169Z,7.74
2023-05-21T21:55:03.612Z,7.53
2023-05-21T21:57:48.796Z,7.67
2023-05-21T22:00:34.205Z,8.05
2023-05-21T22:03:19.548Z,7.85
2023-05-21T22:06:05.005Z,7.56
2023-05-21T22:08:50.458Z,7.58
2023-05-21T22:11:35.767Z,7.91
2023-05-21T22:14:21.233Z,7.88
2023-05-21T22:17:06.537Z,7.64
2023-05-21T22:19:51.888Z,7.45
2023-05-21T22:22:37.224Z,7.65
2023-05-21T22:25:22.518Z,7.60
2023-05-21T22:28:08.008Z,7.81
2023-05-21T22:30:53.244Z,7.25
2023-05-21T22:33:38.695Z,7.73
2023-05-21T22:36:24.046Z,7.59
2023-05-21T22:39:09.470Z,7.43
2023-05-21T22:41:54.803Z,7.44
2023-05-21T22:44:39.831Z,7.44
2023-05-21T22:47:25.031Z,7.40
2023-05-21T22:50:10.436Z,7.36
2023-05-21T22:52:55.664Z,7.28
2023-05-21T22:55:40.997Z,7.16
2023-05-21T22:58:26.281Z,7.02
2023-05-21T23:01:11.647Z,7.16
2023-05-21T23:03:56.915Z,7.36
2023-05-21T23:06:42.206Z,7.14
2023-05-21T23:09:27.516Z,7.23
2023-05-21T23:12:12.847Z,7.18
2023-05-21T23:14:58.242Z,7.19
2023-05-21T23:17:43.538Z,6.79
2023-05-21T23:20:28.688Z,6.97
2023-05-21T23:23:13.927Z,7.13
2023-05-21T23:25:59.127Z,7.16
2023-05-21T23:28:44.454Z,7.14
2023-05-21T23:31:29.774Z,6.50
2023-05-21T23:34:15.052Z,6.72
2023-05-21T23:37:00.641Z,6.74
2023-05-21T23:39:46.188Z,6.71
2023-05-21T23:42:31.464Z,6.86
2023-05-21T23:45:16.828Z,6.63
2023-05-21T23:48:02.302Z,6.93
2023-05-21T23:50:47.549Z,7.00
2023-05-21T23:53:33.115Z,6.86
2023-05-21T23:56:18.318Z,6.73
2023-05-21T23:59:03.863Z,6.68
